Time;durP1;ratioP1;P1;durP2;ratioP2;P2;SDS_P1;SDS_P2;PMS_P1;PMS_P2;Temp;Humidity;BMP_temperature;BMP_pressure;BME280_temperature;BME280_humidity;BME280_pressure;Samples;Min_cycle;Max_cycle;Signal;HPM_P1;HPM_P2
2022/02/16 00:00:26;;;;;;;3.20;3.00;;;;;;;4.17;73.34;96414.94;5052386;28;20397;-56
2022/02/16 00:02:51;;;;;;;2.90;2.70;;;;;;;4.06;73.46;96404.31;5052326;28;20511;-56
2022/02/16 00:05:18;;;;;;;3.05;2.90;;;;;;;4.08;73.72;96397.13;5057523;28;20494;-58
2022/02/16 00:07:44;;;;;;;2.70;2.50;;;;;;;3.99;74.01;96385.34;5052371;28;20521;-58
2022/02/16 00:10:12;;;;;;;2.22;2.10;;;;;;;4.04;73.96;96395.94;5052037;28;20887;-54
2022/02/16 00:12:38;;;;;;;5.22;2.97;;;;;;;4.03;73.63;96407.28;5063318;28;20443;-59
2022/02/16 00:15:05;;;;;;;2.55;2.25;;;;;;;4.04;73.72;96390.75;5088401;28;20394;-55
2022/02/16 00:17:31;;;;;;;2.40;2.20;;;;;;;4.15;73.32;96395.34;5087945;28;20389;-57
2022/02/16 00:19:56;;;;;;;3.03;2.87;;;;;;;3.95;73.55;96390.13;5071976;28;20391;-54
2022/02/16 00:22:22;;;;;;;2.87;2.50;;;;;;;4.02;73.45;96400.50;5084729;28;20397;-59
2022/02/16 00:24:47;;;;;;;2.70;2.50;;;;;;;4.00;73.97;96399.91;5076002;28;20387;-57
2022/02/16 00:27:13;;;;;;;2.77;2.33;;;;;;;3.96;73.95;96396.88;5078488;28;20436;-58
2022/02/16 00:29:38;;;;;;;2.50;2.30;;;;;;;3.98;74.23;96391.50;5089844;28;20489;-57
2022/02/16 00:32:04;;;;;;;2.87;2.67;;;;;;;4.03;73.42;96387.34;5082638;28;20764;-58
2022/02/16 00:34:29;;;;;;;2.58;2.30;;;;;;;4.01;73.32;96385.97;5071698;28;20403;-56
2022/02/16 00:36:56;;;;;;;4.00;2.30;;;;;;;3.80;74.29;96386.88;5068822;28;20415;-56
2022/02/16 00:39:22;;;;;;;2.75;2.55;;;;;;;3.96;74.00;96390.91;5090909;28;20467;-57
2022/02/16 00:41:47;;;;;;;3.10;2.90;;;;;;;3.97;73.66;96382.13;5086074;28;20439;-57
2022/02/16 00:44:13;;;;;;;2.77;2.50;;;;;;;4.01;74.31;96385.97;5073748;28;20530;-57
2022/02/16 00:46:38;;;;;;;2.95;2.30;;;;;;;4.11;73.38;96392.38;5074112;28;20418;-57
2022/02/16 00:49:04;;;;;;;3.13;2.70;;;;;;;4.19;73.67;96381.78;5075995;28;20386;-59
2022/02/16 00:51:29;;;;;;;2.73;2.37;;;;;;;4.20;73.30;96380.00;5073521;28;20395;-60
2022/02/16 00:53:54;;;;;;;2.80;2.55;;;;;;;4.34;72.92;96380.84;5075044;28;20820;-57
2022/02/16 00:56:20;;;;;;;3.63;2.90;;;;;;;4.30;73.28;96374.44;5075487;28;20878;-59
2022/02/16 00:58:45;;;;;;;3.50;2.93;;;;;;;4.34;73.10;96375.66;5084990;28;20444;-56
2022/02/16 01:01:11;;;;;;;3.22;3.00;;;;;;;4.53;72.23;96373.06;5091299;28;20472;-58
2022/02/16 01:03:37;;;;;;;3.10;2.90;;;;;;;4.57;72.35;96370.88;5088113;28;20408;-57
2022/02/16 01:06:03;;;;;;;4.18;3.85;;;;;;;4.53;72.41;96373.06;5071466;28;20461;-58
2022/02/16 01:08:29;;;;;;;4.37;4.07;;;;;;;4.56;72.71;96359.72;5071176;28;20466;-59
2022/02/16 01:10:55;;;;;;;4.43;4.03;;;;;;;4.51;72.35;96364.66;5071941;28;20757;-55
2022/02/16 01:13:21;;;;;;;5.33;4.63;;;;;;;4.48;72.83;96357.31;5086046;28;20418;-57
2022/02/16 01:15:46;;;;;;;5.50;5.10;;;;;;;4.56;72.64;96367.50;5073324;28;20461;-57
2022/02/16 01:18:12;;;;;;;4.93;4.63;;;;;;;4.57;71.99;96357.88;5091009;28;20439;-57
2022/02/16 01:20:38;;;;;;;5.17;4.87;;;;;;;4.49;72.60;96358.09;5081695;28;20429;-59
2022/02/16 01:23:03;;;;;;;4.32;3.92;;;;;;;4.60;72.53;96350.53;5084071;28;20712;-58
2022/02/16 01:25:29;;;;;;;4.80;4.37;;;;;;;4.67;72.53;96344.53;5090987;28;20481;-58
2022/02/16 01:27:54;;;;;;;4.60;4.30;;;;;;;4.64;72.36;96340.53;5089259;28;20409;-59
2022/02/16 01:30:20;;;;;;;5.20;4.70;;;;;;;4.53;73.03;96343.72;5091178;28;20390;-55
2022/02/16 01:32:45;;;;;;;3.90;3.70;;;;;;;4.42;72.73;96344.31;5074941;28;20402;-54
2022/02/16 01:35:11;;;;;;;3.67;3.35;;;;;;;4.32;73.90;96338.72;5073031;28;20394;-55
2022/02/16 01:37:36;;;;;;;4.20;3.90;;;;;;;4.52;73.11;96340.31;5091034;28;20398;-55
2022/02/16 01:40:02;;;;;;;5.90;5.40;;;;;;;4.60;72.35;96324.56;5082220;28;20391;-56
2022/02/16 01:42:28;;;;;;;4.63;4.32;;;;;;;4.70;72.49;96323.34;5086357;28;20395;-55
2022/02/16 01:44:53;;;;;;;4.87;4.60;;;;;;;4.55;72.13;96332.16;5076158;28;20935;-57
2022/02/16 01:47:19;;;;;;;5.10;4.65;;;;;;;4.40;72.82;96330.75;5059557;28;20471;-59
2022/02/16 01:49:44;;;;;;;4.70;4.40;;;;;;;4.43;73.27;96319.97;5078902;28;20391;-57
2022/02/16 01:52:11;;;;;;;6.03;5.30;;;;;;;4.44;72.86;96326.75;5077945;28;20994;-59
2022/02/16 01:54:36;;;;;;;5.20;4.82;;;;;;;4.55;72.09;96319.19;5077952;28;20445;-57
2022/02/16 01:57:05;;;;;;;5.15;4.70;;;;;;;4.50;72.38;96313.81;5080392;28;20428;-55
2022/02/16 01:59:31;;;;;;;5.03;4.72;;;;;;;4.47;72.68;96308.19;5094325;28;20428;-56
2022/02/16 02:01:57;;;;;;;4.93;4.63;;;;;;;4.46;72.21;96304.78;5092047;28;20736;-55
2022/02/16 02:04:22;;;;;;;4.38;4.18;;;;;;;4.51;72.25;96297.22;5080217;28;20433;-56
2022/02/16 02:06:48;;;;;;;4.80;4.40;;;;;;;4.67;71.69;96290.03;5084840;28;20875;-56
2022/02/16 02:09:15;;;;;;;5.00;4.70;;;;;;;4.60;71.53;96287.44;5074270;28;20786;-57
2022/02/16 02:11:41;;;;;;;5.15;4.85;;;;;;;4.82;71.54;96285.41;5084880;28;20431;-55
2022/02/16 02:14:08;;;;;;;4.93;4.72;;;;;;;4.70;71.87;96274.84;5081053;28;20458;-55
2022/02/16 02:16:36;;;;;;;4.55;4.22;;;;;;;4.57;71.72;96275.66;5086752;28;20395;-56
2022/02/16 02:19:03;;;;;;;4.27;4.03;;;;;;;4.50;71.80;96274.06;5074099;28;20964;-56
2022/02/16 02:21:28;;;;;;;5.10;4.78;;;;;;;4.56;71.68;96268.88;5075127;28;20410;-53
2022/02/16 02:23:56;;;;;;;5.05;4.70;;;;;;;4.44;72.84;96272.28;5091044;28;20398;-57
2022/02/16 02:26:22;;;;;;;4.68;4.28;;;;;;;4.52;72.17;96261.69;5093923;28;20931;-55
2022/02/16 02:28:48;;;;;;;4.78;4.45;;;;;;;4.57;71.88;96260.06;5085668;28;20419;-55
2022/02/16 02:31:13;;;;;;;4.97;4.68;;;;;;;4.67;72.08;96248.50;5073896;28;20421;-54
2022/02/16 02:33:39;;;;;;;4.85;4.60;;;;;;;4.80;71.84;96256.25;5075249;28;20772;-56
2022/02/16 02:36:06;;;;;;;5.10;4.75;;;;;;;4.73;72.02;96245.09;5090356;28;20811;-54
2022/02/16 02:38:33;;;;;;;5.40;5.00;;;;;;;4.67;72.12;96246.72;5093159;28;20413;-55
2022/02/16 02:41:01;;;;;;;5.40;4.78;;;;;;;4.76;71.84;96249.88;5084463;28;20848;-55
2022/02/16 02:43:27;;;;;;;4.82;4.53;;;;;;;4.78;71.92;96240.91;5081922;28;20402;-56
2022/02/16 02:45:54;;;;;;;6.22;5.78;;;;;;;4.96;71.67;96230.63;5093228;28;20762;-55
2022/02/16 02:48:24;;;;;;;6.03;5.53;;;;;;;4.89;71.42;96227.28;5093647;28;20386;-56
2022/02/16 02:50:50;;;;;;;6.00;5.60;;;;;;;4.98;71.09;96228.66;5092435;28;20913;-57
2022/02/16 02:53:16;;;;;;;6.43;6.07;;;;;;;4.85;72.14;96222.69;5092572;28;20893;-56
2022/02/16 02:55:42;;;;;;;6.00;5.60;;;;;;;4.74;72.17;96218.13;5085034;28;20399;-54
2022/02/16 02:58:07;;;;;;;5.63;5.33;;;;;;;4.84;71.89;96200.34;5090771;28;20399;-54
2022/02/16 03:00:33;;;;;;;6.40;6.10;;;;;;;4.90;72.24;96199.53;5093412;28;20409;-55
2022/02/16 03:02:58;;;;;;;6.20;5.80;;;;;;;4.87;72.54;96192.13;5079466;28;20446;-57
2022/02/16 03:05:23;;;;;;;6.50;6.10;;;;;;;4.88;72.12;96191.13;5073074;28;20814;-59
2022/02/16 03:07:50;;;;;;;6.10;5.60;;;;;;;4.77;73.00;96189.97;5074253;28;20888;-57
2022/02/16 03:10:17;;;;;;;6.53;6.03;;;;;;;4.91;72.34;96178.53;5085909;28;20416;-55
2022/02/16 03:12:42;;;;;;;7.15;6.72;;;;;;;4.85;72.47;96176.75;5078733;28;20462;-54
2022/02/16 03:15:09;;;;;;;6.10;5.73;;;;;;;4.94;72.61;96187.72;5091498;28;20480;-57
2022/02/16 03:17:34;;;;;;;6.78;6.38;;;;;;;5.01;72.38;96183.31;5092307;28;20389;-58
2022/02/16 03:19:59;;;;;;;6.53;6.13;;;;;;;5.01;72.67;96178.09;5083531;28;20749;-56
2022/02/16 03:22:25;;;;;;;7.30;6.80;;;;;;;5.03;73.08;96178.69;5078969;28;20382;-56
2022/02/16 03:24:50;;;;;;;7.03;6.60;;;;;;;5.06;73.13;96172.28;5091342;28;20756;-58
2022/02/16 03:27:16;;;;;;;5.97;5.67;;;;;;;5.06;72.56;96172.28;5072886;28;20410;-57
2022/02/16 03:29:41;;;;;;;6.47;6.17;;;;;;;5.12;72.68;96163.69;5073383;28;20395;-55
2022/02/16 03:32:07;;;;;;;6.47;6.07;;;;;;;5.00;73.17;96166.91;5075852;28;20401;-59
2022/02/16 03:34:32;;;;;;;6.00;5.60;;;;;;;4.94;73.06;96161.75;5075768;28;20966;-57
2022/02/16 03:36:58;;;;;;;6.32;6.03;;;;;;;4.95;72.75;96155.56;5074979;28;20405;-58
2022/02/16 03:39:23;;;;;;;7.00;6.70;;;;;;;5.08;72.87;96152.09;5074488;28;20400;-60
2022/02/16 03:41:49;;;;;;;7.10;6.70;;;;;;;4.88;73.27;96144.41;5074806;28;20439;-56
2022/02/16 03:44:15;;;;;;;6.03;5.72;;;;;;;5.03;73.13;96137.13;5074500;28;20428;-55
2022/02/16 03:46:42;;;;;;;6.82;6.43;;;;;;;5.14;72.68;96143.47;5072803;28;20469;-55
2022/02/16 03:49:07;;;;;;;6.00;5.50;;;;;;;5.11;72.81;96139.50;5072576;28;20367;-52
2022/02/16 03:51:33;;;;;;;6.93;6.43;;;;;;;5.16;72.49;96134.47;5072257;28;20756;-56
2022/02/16 03:53:59;;;;;;;6.18;5.88;;;;;;;5.15;72.60;96140.66;5072464;28;20479;-56
2022/02/16 03:56:25;;;;;;;6.40;6.00;;;;;;;5.09;73.10;96131.09;5072610;28;20364;-57
2022/02/16 03:58:50;;;;;;;6.68;6.28;;;;;;;5.13;73.28;96129.69;5054664;28;20486;-59
2022/02/16 04:01:16;;;;;;;7.05;6.65;;;;;;;5.20;72.69;96127.84;5073655;28;20395;-58
2022/02/16 04:03:42;;;;;;;8.20;7.80;;;;;;;5.24;73.03;96131.63;5072307;28;20537;-53
2022/02/16 04:06:07;;;;;;;7.03;6.65;;;;;;;5.30;73.25;96119.59;5071858;28;20510;-55
2022/02/16 04:08:33;;;;;;;6.50;6.17;;;;;;;5.23;72.83;96122.25;5071941;28;20502;-54
2022/02/16 04:10:59;;;;;;;7.27;6.87;;;;;;;5.19;73.36;96130.66;5071771;28;20411;-56
2022/02/16 04:13:24;;;;;;;7.85;7.35;;;;;;;5.23;73.58;96117.06;5079141;28;20863;-56
2022/02/16 04:15:50;;;;;;;7.40;7.00;;;;;;;5.24;73.29;96110.06;5091392;28;20882;-53
2022/02/16 04:18:15;;;;;;;7.40;7.10;;;;;;;5.43;73.16;96104.72;5074865;28;20487;-58
2022/02/16 04:20:40;;;;;;;6.93;6.63;;;;;;;5.39;72.80;96093.16;5091173;28;20440;-54
2022/02/16 04:23:08;;;;;;;7.47;7.17;;;;;;;5.31;73.52;96093.41;5092039;28;20389;-54
2022/02/16 04:25:34;;;;;;;6.85;6.45;;;;;;;5.36;73.87;96101.38;5081400;28;20868;-53
2022/02/16 04:28:02;;;;;;;7.25;6.82;;;;;;;5.52;73.12;96091.47;5071911;28;20403;-56
2022/02/16 04:30:27;;;;;;;6.40;6.10;;;;;;;5.47;73.34;96091.28;5074654;28;20396;-54
2022/02/16 04:32:53;;;;;;;5.60;5.30;;;;;;;5.42;73.59;96095.31;5073790;28;20440;-52
2022/02/16 04:35:18;;;;;;;6.03;5.73;;;;;;;5.36;74.12;96098.75;5073098;28;20438;-56
2022/02/16 04:37:44;;;;;;;5.63;5.33;;;;;;;5.46;73.96;96094.94;5074974;28;20403;-54
2022/02/16 04:40:09;;;;;;;5.70;5.50;;;;;;;5.44;73.99;96087.31;5074133;28;20745;-56
2022/02/16 04:42:35;;;;;;;6.43;6.13;;;;;;;5.54;74.17;96092.03;5076605;28;20501;-54
2022/02/16 04:45:00;;;;;;;5.50;5.30;;;;;;;5.49;74.05;96086.69;5088797;28;20394;-55
2022/02/16 04:47:26;;;;;;;6.47;6.17;;;;;;;5.64;73.85;96074.97;5089557;28;20455;-53
2022/02/16 04:49:51;;;;;;;7.18;6.78;;;;;;;5.58;73.88;96080.22;5076017;28;20405;-55
2022/02/16 04:52:17;;;;;;;6.47;6.18;;;;;;;5.63;74.13;96080.41;5091217;28;20395;-50
2022/02/16 04:54:42;;;;;;;7.83;7.43;;;;;;;5.65;73.86;96084.34;5091603;28;20386;-54
2022/02/16 04:57:07;;;;;;;6.72;6.40;;;;;;;5.63;74.24;96078.56;5074754;28;20799;-55
2022/02/16 04:59:33;;;;;;;6.57;6.27;;;;;;;5.64;74.05;96074.16;5089971;28;20405;-56
2022/02/16 05:01:58;;;;;;;6.37;6.00;;;;;;;5.66;74.35;96072.16;5089866;28;20402;-54
2022/02/16 05:04:24;;;;;;;7.03;6.43;;;;;;;5.74;74.06;96064.09;5091044;28;20541;-58
2022/02/16 05:06:49;;;;;;;6.70;6.40;;;;;;;5.63;74.53;96062.97;5091079;28;20489;-53
2022/02/16 05:09:15;;;;;;;6.10;5.80;;;;;;;5.62;74.74;96058.81;5075231;28;20414;-55
2022/02/16 05:11:40;;;;;;;6.07;5.75;;;;;;;5.71;74.58;96056.72;5068523;28;20939;-57
2022/02/16 05:14:05;;;;;;;5.53;5.33;;;;;;;5.74;74.74;96057.06;5071124;28;20410;-57
2022/02/16 05:16:31;;;;;;;5.40;5.10;;;;;;;5.74;74.93;96051.88;5072878;28;20392;-54
2022/02/16 05:18:59;;;;;;;5.10;4.90;;;;;;;5.68;74.78;96050.16;5075491;28;20394;-59
2022/02/16 05:21:24;;;;;;;4.90;4.70;;;;;;;5.61;75.56;96051.22;5074835;28;20876;-58
2022/02/16 05:23:50;;;;;;;3.93;3.73;;;;;;;5.72;75.21;96043.50;5075444;28;20409;-58
2022/02/16 05:26:15;;;;;;;4.23;4.07;;;;;;;5.66;75.56;96041.75;5074694;28;20403;-52
2022/02/16 05:28:40;;;;;;;5.00;4.80;;;;;;;5.61;75.86;96044.22;5075416;28;20434;-54
2022/02/16 05:31:06;;;;;;;4.30;4.10;;;;;;;5.63;75.83;96039.56;5074018;28;20864;-57
2022/02/16 05:33:32;;;;;;;4.50;4.30;;;;;;;5.76;75.86;96034.25;5074795;28;20406;-53
2022/02/16 05:35:57;;;;;;;3.75;3.65;;;;;;;5.77;75.64;96030.66;5074613;28;20391;-57
2022/02/16 05:38:23;;;;;;;3.73;3.53;;;;;;;5.70;76.42;96027.31;5074927;28;20441;-55
2022/02/16 05:40:48;;;;;;;3.20;3.00;;;;;;;5.74;76.41;96028.47;5074482;28;20387;-55
2022/02/16 05:43:14;;;;;;;2.90;2.80;;;;;;;5.82;75.97;96022.22;5074682;28;20413;-54
2022/02/16 05:45:45;;;;;;;3.38;3.17;;;;;;;5.78;76.33;96026.25;5074635;28;20455;-56
2022/02/16 05:48:11;;;;;;;2.80;2.70;;;;;;;5.71;76.86;96013.31;5074882;28;20394;-53
2022/02/16 05:50:37;;;;;;;2.90;2.70;;;;;;;5.77;77.10;96009.06;5074888;28;20399;-52
2022/02/16 05:53:03;;;;;;;2.35;2.25;;;;;;;5.61;77.75;96007.03;5074617;28;20494;-53
2022/02/16 05:55:30;;;;;;;2.28;2.20;;;;;;;5.63;77.64;96003.19;5074788;28;20387;-52
2022/02/16 05:57:55;;;;;;;2.42;2.33;;;;;;;5.70;77.44;96011.72;5073961;28;20979;-56
2022/02/16 06:00:20;;;;;;;2.58;2.47;;;;;;;5.65;77.76;96003.78;5074306;28;20486;-58
2022/02/16 06:02:46;;;;;;;2.33;2.23;;;;;;;5.70;77.90;96000.53;5074118;28;20872;-53
2022/02/16 06:05:11;;;;;;;2.93;2.83;;;;;;;5.68;77.88;95995.56;5073623;28;20403;-53
2022/02/16 06:07:37;;;;;;;2.40;2.30;;;;;;;5.67;78.04;95990.56;5073840;28;20545;-56
2022/02/16 06:10:03;;;;;;;2.28;2.17;;;;;;;5.57;78.55;95983.28;5073948;28;20439;-56
2022/02/16 06:12:29;;;;;;;2.40;2.30;;;;;;;5.72;77.86;95991.50;5071387;28;20440;-57
2022/02/16 06:14:54;;;;;;;2.30;2.20;;;;;;;5.73;77.97;95995.72;5074403;28;20403;-55
2022/02/16 06:17:20;;;;;;;2.10;2.00;;;;;;;5.79;78.01;96007.06;5073177;28;20884;-54
2022/02/16 06:19:45;;;;;;;2.00;1.90;;;;;;;5.83;77.73;95997.81;5068825;28;20395;-55
2022/02/16 06:22:10;;;;;;;2.40;2.30;;;;;;;5.69;78.46;95996.31;5067766;28;20508;-55
2022/02/16 06:24:36;;;;;;;2.40;2.30;;;;;;;5.78;77.96;95997.66;5069235;28;20545;-58
2022/02/16 06:27:03;;;;;;;2.60;2.50;;;;;;;5.81;78.13;95990.22;5067257;28;20918;-52
2022/02/16 06:29:28;;;;;;;2.23;2.00;;;;;;;5.83;78.10;95995.19;5068368;28;20526;-54
2022/02/16 06:31:53;;;;;;;2.20;2.10;;;;;;;5.91;77.87;96001.97;5071663;28;20843;-54
2022/02/16 06:34:19;;;;;;;2.50;2.40;;;;;;;5.91;77.94;96001.97;5074453;28;20429;-57
2022/02/16 06:36:44;;;;;;;3.70;3.57;;;;;;;5.73;78.62;96000.91;5074263;28;20433;-55
2022/02/16 06:39:10;;;;;;;2.45;2.35;;;;;;;5.83;78.38;96000.41;5073881;28;20379;-53
2022/02/16 06:41:35;;;;;;;2.50;2.40;;;;;;;6.02;77.96;95994.22;5074184;28;20435;-58
2022/02/16 06:44:01;;;;;;;2.70;2.60;;;;;;;5.86;78.18;95992.16;5074005;28;20376;-56
2022/02/16 06:46:26;;;;;;;2.53;2.42;;;;;;;5.89;78.33;95980.56;5072899;28;20414;-56
2022/02/16 06:48:52;;;;;;;2.83;2.73;;;;;;;6.01;78.51;95987.44;5065450;28;20402;-54
2022/02/16 06:51:18;;;;;;;2.53;2.50;;;;;;;5.91;78.56;95989.72;5073234;28;20929;-55
2022/02/16 06:53:44;;;;;;;2.40;2.40;;;;;;;6.04;78.26;95994.78;5073276;28;20703;-51
2022/02/16 06:56:10;;;;;;;2.42;2.40;;;;;;;6.05;77.93;95980.78;5074016;28;20390;-53
2022/02/16 06:58:35;;;;;;;3.20;3.00;;;;;;;5.89;78.59;95981.38;5073523;28;20486;-52
2022/02/16 07:01:01;;;;;;;2.83;2.63;;;;;;;5.97;78.45;95972.47;5073775;28;20384;-57
2022/02/16 07:03:26;;;;;;;3.60;3.50;;;;;;;5.90;78.33;95972.56;5072970;28;20406;-53
2022/02/16 07:05:52;;;;;;;3.73;3.60;;;;;;;5.82;78.76;95973.59;5073304;28;20498;-56
2022/02/16 07:08:17;;;;;;;2.90;2.70;;;;;;;6.00;78.68;95962.44;5072905;28;20494;-51
2022/02/16 07:10:44;;;;;;;2.43;2.40;;;;;;;6.04;78.43;95973.19;5055021;28;20490;-51
2022/02/16 07:13:09;;;;;;;3.10;2.90;;;;;;;5.81;79.33;95964.22;5052723;28;20431;-50
2022/02/16 07:15:35;;;;;;;2.60;2.50;;;;;;;5.81;79.67;95959.00;5073123;28;20403;-50
2022/02/16 07:18:01;;;;;;;2.80;2.70;;;;;;;5.80;80.45;95970.41;5072486;28;20450;-53
2022/02/16 07:20:27;;;;;;;4.63;4.43;;;;;;;5.93;79.91;95963.50;5072915;28;20868;-66
2022/02/16 07:22:53;;;;;;;77.63;73.45;;;;;;;8.36;100.00;95961.47;5072483;28;20887;-59
2022/02/16 07:25:19;;;;;;;21.10;20.00;;;;;;;8.72;73.36;95954.06;5072778;28;20395;-56
2022/02/16 07:27:45;;;;;;;19.48;18.48;;;;;;;7.46;74.50;95960.13;5072482;28;20744;-54
2022/02/16 07:30:13;;;;;;;16.67;15.88;;;;;;;6.84;77.24;95956.31;5072287;28;20431;-55
2022/02/16 07:32:43;;;;;;;17.42;16.52;;;;;;;6.62;78.97;95947.44;5066707;28;20397;-55
2022/02/16 07:35:10;;;;;;;18.52;17.63;;;;;;;6.51;79.41;95950.78;5067450;28;20818;-54
2022/02/16 07:37:36;;;;;;;14.13;13.43;;;;;;;6.19;81.55;95945.78;5067801;28;20406;-53
2022/02/16 07:40:04;;;;;;;10.73;10.23;;;;;;;6.14;82.61;95952.66;5066564;28;20403;-49
2022/02/16 07:42:29;;;;;;;10.32;9.82;;;;;;;6.14;83.46;95950.06;5067404;28;20414;-52
2022/02/16 07:44:55;;;;;;;7.87;7.57;;;;;;;6.01;84.09;95947.63;5068624;28;20399;-57
2022/02/16 07:47:22;;;;;;;7.60;7.30;;;;;;;5.93;85.77;95938.31;5071803;28;20446;-57
2022/02/16 07:49:47;;;;;;;8.23;7.82;;;;;;;6.00;85.41;95935.63;5071541;28;20422;-54
2022/02/16 07:52:13;;;;;;;9.20;8.80;;;;;;;5.94;84.93;95928.69;5071185;28;20408;-52
2022/02/16 07:54:38;;;;;;;9.88;9.43;;;;;;;5.93;85.74;95934.91;5071923;28;20406;-54
2022/02/16 07:57:04;;;;;;;10.50;9.97;;;;;;;5.85;86.47;95928.19;5071936;28;20872;-53
2022/02/16 07:59:29;;;;;;;10.00;9.50;;;;;;;5.80;87.31;95936.63;5071369;28;20431;-55
2022/02/16 08:01:56;;;;;;;11.43;10.73;;;;;;;5.82;86.90;95934.59;5070621;28;20408;-55
2022/02/16 08:04:24;;;;;;;10.52;10.02;;;;;;;5.84;87.23;95919.59;5071499;28;20464;-58
2022/02/16 08:06:49;;;;;;;10.82;10.23;;;;;;;5.70;87.51;95925.13;5071857;28;20419;-52
2022/02/16 08:09:15;;;;;;;7.60;7.20;;;;;;;5.88;88.72;95929.56;5070835;28;20403;-52
2022/02/16 08:11:43;;;;;;;8.63;8.23;;;;;;;5.75;88.83;95928.69;5073997;28;20996;-51
2022/02/16 08:14:08;;;;;;;9.63;9.13;;;;;;;5.89;88.39;95924.16;5072014;28;20399;-52
2022/02/16 08:16:35;;;;;;;12.27;11.68;;;;;;;5.71;89.01;95914.53;5071023;28;20482;-51
2022/02/16 08:19:02;;;;;;;11.65;11.05;;;;;;;5.73;89.63;95916.91;5071595;28;20391;-52
2022/02/16 08:21:28;;;;;;;8.60;8.20;;;;;;;5.82;88.52;95921.59;5072041;28;20406;-50
2022/02/16 08:23:53;;;;;;;7.82;7.43;;;;;;;5.82;89.43;95919.00;5071873;28;20396;-54
2022/02/16 08:26:19;;;;;;;10.30;9.70;;;;;;;5.82;89.58;95910.41;5071528;28;20526;-50
2022/02/16 08:28:44;;;;;;;9.60;9.10;;;;;;;5.74;89.27;95921.13;5071471;28;20403;-55
2022/02/16 08:31:10;;;;;;;9.53;9.10;;;;;;;5.65;90.15;95917.19;5071076;28;20864;-54
2022/02/16 08:33:36;;;;;;;8.40;8.03;;;;;;;5.64;90.49;95918.19;5071647;28;20464;-52
2022/02/16 08:36:01;;;;;;;8.17;7.77;;;;;;;5.70;91.18;95905.13;5071682;28;20395;-53
2022/02/16 08:38:27;;;;;;;4.97;4.78;;;;;;;5.77;90.52;95899.88;5071326;28;20403;-57
2022/02/16 08:40:52;;;;;;;5.40;5.10;;;;;;;5.75;91.53;95904.47;5071558;28;20414;-56
2022/02/16 08:43:18;;;;;;;5.13;4.93;;;;;;;5.80;91.46;95889.03;5071243;28;20953;-57
2022/02/16 08:45:43;;;;;;;6.40;6.00;;;;;;;5.79;91.77;95895.25;5071597;28;20867;-53
2022/02/16 08:48:09;;;;;;;5.50;5.20;;;;;;;5.94;91.33;95889.69;5071790;28;20754;-56
2022/02/16 08:50:34;;;;;;;5.15;4.95;;;;;;;6.01;91.03;95880.00;5070388;28;20421;-57
2022/02/16 08:53:00;;;;;;;5.78;5.47;;;;;;;5.81;92.21;95878.41;5071617;28;20406;-56
2022/02/16 08:55:26;;;;;;;5.35;5.15;;;;;;;5.63;92.92;95886.22;5071333;28;20445;-57
2022/02/16 08:57:51;;;;;;;5.00;4.70;;;;;;;5.63;93.54;95881.00;5071285;28;20423;-52
2022/02/16 09:00:17;;;;;;;6.10;5.80;;;;;;;5.76;93.88;95867.06;5068378;28;20425;-53
2022/02/16 09:02:43;;;;;;;5.87;5.57;;;;;;;5.85;94.41;95863.94;5071609;28;20461;-55
2022/02/16 09:05:10;;;;;;;6.47;6.17;;;;;;;5.66;94.80;95866.81;5063151;28;20410;-54
2022/02/16 09:07:37;;;;;;;8.07;7.68;;;;;;;5.58;94.90;95861.88;5068057;28;20415;-53
2022/02/16 09:10:08;;;;;;;6.23;5.93;;;;;;;5.71;94.95;95862.53;5065366;28;20475;-58
2022/02/16 09:12:35;;;;;;;6.05;5.75;;;;;;;5.80;94.44;95860.41;5048746;28;20434;-54
2022/02/16 09:15:02;;;;;;;6.30;6.03;;;;;;;5.54;95.29;95856.34;5076712;28;20389;-57
2022/02/16 09:17:28;;;;;;;6.85;6.55;;;;;;;5.67;96.62;95858.00;5069270;28;20726;-53
2022/02/16 09:19:55;;;;;;;7.63;7.22;;;;;;;5.70;96.97;95852.34;5069662;28;20798;-51
2022/02/16 09:22:23;;;;;;;6.68;6.38;;;;;;;5.79;96.11;95833.66;5069679;28;21611;-56
2022/02/16 09:24:49;;;;;;;7.20;6.90;;;;;;;5.87;96.36;95840.38;5070719;28;20395;-54
2022/02/16 09:27:16;;;;;;;5.97;5.68;;;;;;;6.01;95.51;95831.38;5070579;28;20406;-51
2022/02/16 09:29:42;;;;;;;6.03;5.83;;;;;;;6.05;95.63;95829.13;5069958;28;20490;-56
2022/02/16 09:32:08;;;;;;;5.50;5.20;;;;;;;6.02;95.30;95835.56;5069209;28;20417;-53
2022/02/16 09:34:34;;;;;;;5.38;5.18;;;;;;;5.85;96.53;95822.34;5069021;28;20658;-52
2022/02/16 09:36:59;;;;;;;5.05;4.85;;;;;;;5.94;97.47;95822.09;5069504;28;20391;-58
2022/02/16 09:39:25;;;;;;;5.03;4.80;;;;;;;6.04;96.28;95812.72;5067836;28;20907;-55
2022/02/16 09:41:52;;;;;;;4.85;4.65;;;;;;;6.09;95.38;95802.44;5069632;28;20776;-56
2022/02/16 09:44:28;;;;;;;5.35;5.15;;;;;;;6.02;95.68;95808.78;5069774;28;20396;-58
2022/02/16 09:46:53;;;;;;;5.18;4.88;;;;;;;6.04;95.58;95817.13;5069511;28;20836;-56
2022/02/16 09:49:19;;;;;;;3.90;3.73;;;;;;;6.17;94.62;95802.13;5069383;28;20409;-56
2022/02/16 09:51:44;;;;;;;3.63;3.50;;;;;;;6.31;93.67;95801.91;5070527;28;20969;-56
2022/02/16 09:54:12;;;;;;;3.80;3.60;;;;;;;6.41;94.21;95792.53;5070721;28;20876;-57
2022/02/16 09:56:43;;;;;;;5.45;5.05;;;;;;;6.48;91.98;95805.47;5070946;28;20400;-55
2022/02/16 09:59:08;;;;;;;3.90;3.80;;;;;;;6.42;92.45;95794.13;5070869;28;20431;-56
2022/02/16 10:01:52;;;;;;;5.55;5.35;;;;;;;6.45;91.97;95795.50;5071225;28;20427;-57
2022/02/16 10:04:18;;;;;;;3.78;3.67;;;;;;;6.51;91.96;95805.81;5073600;28;20399;-57
2022/02/16 10:06:45;;;;;;;5.32;5.07;;;;;;;6.46;91.83;95795.28;5075116;28;20411;-56
2022/02/16 10:09:28;;;;;;;3.60;3.50;;;;;;;6.60;91.87;95790.66;5074177;28;20410;-51
2022/02/16 10:11:59;;;;;;;4.22;4.13;;;;;;;6.72;91.37;95801.06;5071984;28;20439;-54
2022/02/16 10:14:33;;;;;;;7.00;6.70;;;;;;;6.97;90.06;95812.03;5092299;28;20402;-56
2022/02/16 10:17:02;;;;;;;8.40;8.02;;;;;;;6.89;90.00;95810.59;5094344;28;20927;-54
2022/02/16 10:19:50;;;;;;;12.10;11.50;;;;;;;6.84;89.13;95828.72;5094781;28;20466;-56
2022/02/16 10:22:18;;;;;;;14.20;13.55;;;;;;;6.75;89.88;95827.44;5094226;28;20688;-54
2022/02/16 10:24:44;;;;;;;13.02;12.43;;;;;;;6.86;89.11;95824.03;5094342;28;20489;-55
2022/02/16 10:27:12;;;;;;;12.35;11.75;;;;;;;7.08;88.76;95821.66;5094329;28;20397;-56
2022/02/16 10:29:40;;;;;;;16.17;15.38;;;;;;;7.14;88.00;95831.16;5094418;28;20440;-57
2022/02/16 10:32:06;;;;;;;19.13;18.17;;;;;;;7.20;87.99;95825.03;5094136;28;20390;-51
2022/02/16 10:34:50;;;;;;;25.30;24.00;;;;;;;7.22;88.00;95817.81;5094181;28;20801;-54
2022/02/16 10:37:21;;;;;;;29.65;28.15;;;;;;;7.37;87.38;95812.09;5093959;28;20745;-52
2022/02/16 10:40:11;;;;;;;35.75;33.95;;;;;;;7.39;87.14;95805.66;5094126;28;20412;-53
2022/02/16 10:42:37;;;;;;;36.55;34.65;;;;;;;7.52;87.16;95797.53;5075305;28;20409;-55
2022/02/16 10:45:09;;;;;;;41.53;39.43;;;;;;;7.61;85.52;95798.00;5094174;28;20402;-52
2022/02/16 10:47:56;;;;;;;40.70;38.60;;;;;;;7.78;85.32;95793.63;5093603;28;20405;-56
2022/02/16 10:50:24;;;;;;;40.50;38.42;;;;;;;7.83;85.31;95793.72;5093401;28;20447;-54
2022/02/16 10:52:56;;;;;;;43.00;40.83;;;;;;;7.88;85.36;95785.97;5093376;28;20429;-53
2022/02/16 10:55:47;;;;;;;43.05;40.85;;;;;;;8.17;85.03;95770.28;5093907;28;20382;-54
2022/02/16 10:58:19;;;;;;;38.38;36.38;;;;;;;8.25;83.85;95752.41;5093261;28;20386;-54
2022/02/16 11:00:47;;;;;;;43.35;41.13;;;;;;;8.37;84.46;95762.00;5092877;28;20480;-55
2022/02/16 11:03:20;;;;;;;35.63;33.72;;;;;;;8.24;84.69;95760.50;5092606;28;20405;-56
2022/02/16 11:05:47;;;;;;;37.22;35.25;;;;;;;8.35;83.73;95759.66;5093004;28;20535;-53
2022/02/16 11:08:14;;;;;;;38.22;36.20;;;;;;;8.43;83.15;95761.84;5092883;28;20413;-54
2022/02/16 11:10:47;;;;;;;32.08;30.42;;;;;;;8.83;81.85;95755.66;5090665;28;20401;-56
2022/02/16 11:13:18;;;;;;;34.13;32.38;;;;;;;8.99;81.81;95760.03;5073388;28;20420;-53
2022/02/16 11:15:45;;;;;;;34.35;32.55;;;;;;;8.78;82.17;95751.16;5072342;28;20491;-53
2022/02/16 11:18:13;;;;;;;34.45;32.65;;;;;;;8.87;81.67;95757.53;5072152;28;20956;-54
2022/02/16 11:20:40;;;;;;;35.53;33.70;;;;;;;9.01;81.55;95756.16;5071515;28;20895;-57
2022/02/16 11:23:06;;;;;;;46.27;43.77;;;;;;;9.04;80.95;95760.91;5072368;28;20406;-51
2022/02/16 11:25:34;;;;;;;39.27;37.27;;;;;;;9.23;80.36;95755.38;5072918;28;20732;-57
2022/02/16 11:28:01;;;;;;;39.97;37.85;;;;;;;9.24;81.52;95756.97;5068485;28;20412;-56
2022/02/16 11:30:36;;;;;;;50.30;47.60;;;;;;;9.53;79.72;95756.53;5072122;28;20392;-53
2022/02/16 11:33:18;;;;;;;55.15;52.17;;;;;;;9.50;79.36;95751.00;5072418;28;20387;-52
2022/02/16 11:35:46;;;;;;;64.68;61.15;;;;;;;9.37;80.08;95752.16;5071609;28;20407;-55